createdAt,value
2022-09-09T00:01:25.820Z,16.30
2022-09-09T00:06:31.279Z,16.30
2022-09-09T00:11:41.473Z,16.30
2022-09-09T00:16:45.797Z,16.30
2022-09-09T00:22:09.060Z,16.30
2022-09-09T00:27:13.521Z,16.30
2022-09-09T00:32:15.397Z,16.40
2022-09-09T00:37:12.817Z,16.40
2022-09-09T00:42:26.721Z,16.30
2022-09-09T00:47:47.907Z,16.30
2022-09-09T00:52:47.975Z,16.40
2022-09-09T00:57:47.341Z,16.20
2022-09-09T01:03:21.997Z,16.20
2022-09-09T01:09:07.447Z,16.10
2022-09-09T01:14:35.996Z,16.00
2022-09-09T01:20:14.551Z,16.10
2022-09-09T01:25:41.333Z,16.20
2022-09-09T01:30:42.161Z,16.30
2022-09-09T01:36:11.524Z,16.20
2022-09-09T01:41:08.956Z,16.20
2022-09-09T01:46:07.852Z,16.10
2022-09-09T01:51:05.656Z,16.10
2022-09-09T01:56:36.836Z,16.10
2022-09-09T02:01:49.991Z,16.10
2022-09-09T02:06:49.189Z,15.90
2022-09-09T02:11:51.127Z,15.90
2022-09-09T02:16:53.992Z,15.90
2022-09-09T02:21:57.047Z,15.90
2022-09-09T02:26:59.457Z,15.80
2022-09-09T02:32:04.180Z,15.90
2022-09-09T02:37:03.651Z,15.90
2022-09-09T02:42:00.977Z,15.70
2022-09-09T02:47:14.166Z,15.60
2022-09-09T02:52:27.661Z,15.60
2022-09-09T02:57:29.099Z,15.60
2022-09-09T03:02:27.010Z,15.60
2022-09-09T03:07:24.524Z,15.70
2022-09-09T03:12:21.860Z,15.80
2022-09-09T03:17:19.323Z,15.70
2022-09-09T03:22:16.571Z,15.70
2022-09-09T03:27:15.466Z,15.50
2022-09-09T03:32:13.426Z,15.60
2022-09-09T03:37:10.951Z,15.70
2022-09-09T03:42:08.566Z,15.70
2022-09-09T03:47:07.432Z,15.60
2022-09-09T03:52:06.361Z,15.70
2022-09-09T03:57:05.712Z,15.70
2022-09-09T04:02:04.468Z,15.60
2022-09-09T04:07:03.137Z,15.70
2022-09-09T04:12:01.258Z,15.90
2022-09-09T04:17:00.655Z,16.00
2022-09-09T04:21:59.238Z,16.00
2022-09-09T04:26:56.846Z,15.90
2022-09-09T04:31:54.418Z,15.80
2022-09-09T04:36:53.076Z,15.90
2022-09-09T04:41:51.161Z,15.80
2022-09-09T04:46:48.412Z,15.90
2022-09-09T04:51:45.587Z,15.90
2022-09-09T04:56:44.467Z,16.00
2022-09-09T05:01:42.058Z,16.00
2022-09-09T05:06:39.672Z,16.00
2022-09-09T05:11:39.718Z,16.00
2022-09-09T05:16:36.803Z,16.10
2022-09-09T05:21:34.153Z,16.30
2022-09-09T05:26:32.690Z,16.30
2022-09-09T05:31:31.801Z,16.30
2022-09-09T05:36:29.191Z,16.30
2022-09-09T05:41:26.414Z,16.30
2022-09-09T05:46:26.205Z,16.20
2022-09-09T05:51:27.727Z,16.50
2022-09-09T05:56:26.959Z,16.50
2022-09-09T06:01:33.142Z,16.60
2022-09-09T06:06:37.975Z,16.80
2022-09-09T06:11:37.237Z,16.80
2022-09-09T06:16:35.071Z,16.50
2022-09-09T06:21:34.973Z,16.50
2022-09-09T06:26:34.691Z,16.30
2022-09-09T06:31:35.602Z,16.30
2022-09-09T06:36:35.570Z,16.20
2022-09-09T06:41:34.337Z,16.20
2022-09-09T06:46:34.465Z,16.10
2022-09-09T06:51:35.094Z,16.10
2022-09-09T06:56:35.085Z,16.20
2022-09-09T07:01:35.179Z,16.10
2022-09-09T07:06:35.595Z,16.20
2022-09-09T07:11:38.579Z,16.20
2022-09-09T07:16:38.413Z,16.10
2022-09-09T07:21:35.690Z,16.00
2022-09-09T07:26:33.239Z,16.00
2022-09-09T07:31:33.113Z,15.90
2022-09-09T07:36:34.370Z,15.90
2022-09-09T07:41:35.565Z,16.00
2022-09-09T07:46:33.362Z,16.00
2022-09-09T07:51:33.524Z,16.00
2022-09-09T07:56:33.562Z,16.00
2022-09-09T08:01:40.166Z,16.10
2022-09-09T08:06:41.298Z,15.90
2022-09-09T08:11:39.724Z,15.90
2022-09-09T08:16:40.524Z,16.00
2022-09-09T08:21:41.218Z,16.00
2022-09-09T08:26:42.682Z,16.40
2022-09-09T08:31:52.381Z,16.50
2022-09-09T08:36:50.838Z,16.70
2022-09-09T08:41:54.764Z,16.60
2022-09-09T08:47:09.739Z,16.60
2022-09-09T08:52:17.394Z,16.60
2022-09-09T08:57:23.484Z,16.70
2022-09-09T09:02:40.703Z,16.80
2022-09-09T09:08:05.390Z,16.70
2022-09-09T09:13:04.184Z,16.80
2022-09-09T09:18:01.546Z,16.90
2022-09-09T09:23:03.040Z,16.70
2022-09-09T09:28:19.025Z,16.60
2022-09-09T09:33:48.609Z,16.60
2022-09-09T09:44:42.004Z,16.60
2022-09-09T09:49:39.592Z,16.50
2022-09-09T09:54:43.383Z,16.60
2022-09-09T09:59:41.284Z,16.60
2022-09-09T10:04:40.142Z,16.70
2022-09-09T10:09:37.482Z,16.80
2022-09-09T10:14:36.481Z,16.80
2022-09-09T10:19:37.811Z,16.90
2022-09-09T10:25:02.613Z,16.80
2022-09-09T10:30:13.449Z,16.90
2022-09-09T10:35:34.578Z,16.80
2022-09-09T10:40:43.788Z,17.00
2022-09-09T10:46:10.227Z,17.20
2022-09-09T10:51:07.461Z,17.10
2022-09-09T10:56:16.332Z,17.10
2022-09-09T11:01:40.924Z,17.00
2022-09-09T11:06:44.026Z,17.00
2022-09-09T11:11:54.933Z,17.10
2022-09-09T11:16:57.851Z,17.20
2022-09-09T11:21:56.635Z,17.30
2022-09-09T11:27:04.140Z,17.30
2022-09-09T11:32:38.215Z,17.50
2022-09-09T11:37:54.025Z,17.60
2022-09-09T11:43:07.125Z,17.60
2022-09-09T11:48:26.976Z,17.70
2022-09-09T11:53:24.400Z,17.80
2022-09-09T11:58:23.735Z,17.80
2022-09-09T12:03:51.273Z,17.80
2022-09-09T12:08:56.262Z,17.70
2022-09-09T12:13:59.006Z,17.80
2022-09-09T12:19:10.538Z,18.40
2022-09-09T12:24:14.369Z,18.30
2022-09-09T12:29:20.363Z,18.30
2022-09-09T12:34:42.391Z,18.40
2022-09-09T12:39:48.654Z,19.00
2022-09-09T12:44:56.296Z,19.10
2022-09-09T12:49:54.006Z,19.00
2022-09-09T12:54:54.874Z,19.40
2022-09-09T12:59:52.407Z,19.60
2022-09-09T13:04:51.608Z,19.30
2022-09-09T13:09:50.271Z,19.20
2022-09-09T13:14:52.036Z,19.10
2022-09-09T13:19:54.115Z,19.10
2022-09-09T13:25:04.211Z,19.00
2022-09-09T13:30:02.229Z,19.30
2022-09-09T13:35:02.549Z,19.10
2022-09-09T13:40:00.267Z,18.70
2022-09-09T13:45:00.168Z,18.60
2022-09-09T13:49:57.391Z,18.60
2022-09-09T13:54:55.547Z,18.40
2022-09-09T14:00:11.313Z,18.30
2022-09-09T14:05:08.729Z,18.40
2022-09-09T14:10:07.719Z,18.60
2022-09-09T14:15:07.732Z,18.50
2022-09-09T14:20:10.387Z,18.30
2022-09-09T14:25:08.429Z,18.00
2022-09-09T14:30:06.073Z,17.80
2022-09-09T14:35:03.829Z,17.70
2022-09-09T14:40:01.255Z,17.70
2022-09-09T14:44:58.901Z,17.70
2022-09-09T14:49:56.322Z,17.60
2022-09-09T14:54:53.645Z,17.60
2022-09-09T14:59:51.536Z,17.60
2022-09-09T15:04:51.030Z,17.50
2022-09-09T15:09:49.552Z,17.50
2022-09-09T15:14:47.107Z,17.40
2022-09-09T15:19:45.306Z,17.50
2022-09-09T15:24:42.842Z,17.40
2022-09-09T15:29:40.076Z,17.50
2022-09-09T15:34:37.432Z,17.50
2022-09-09T15:39:38.740Z,17.20
2022-09-09T15:44:43.701Z,17.00
2022-09-09T15:49:41.266Z,16.90
2022-09-09T15:54:41.513Z,17.00
2022-09-09T15:59:38.807Z,16.90
2022-09-09T16:04:36.144Z,16.90
2022-09-09T16:09:36.319Z,16.90
2022-09-09T16:14:36.847Z,17.00
2022-09-09T16:19:35.677Z,17.00
2022-09-09T16:24:32.863Z,16.90
2022-09-09T16:29:30.588Z,16.90
2022-09-09T16:34:27.824Z,17.00
2022-09-09T16:39:25.625Z,17.10
2022-09-09T16:44:22.945Z,17.00
2022-09-09T16:49:20.230Z,16.70
2022-09-09T16:54:19.552Z,16.70
2022-09-09T16:59:19.712Z,16.80
2022-09-09T17:04:21.943Z,16.80
2022-09-09T17:09:20.978Z,16.60
2022-09-09T17:14:21.045Z,16.50
2022-09-09T17:19:18.527Z,16.50
2022-09-09T17:24:17.756Z,16.50
2022-09-09T17:29:15.126Z,16.50
2022-09-09T17:34:12.573Z,16.50
2022-09-09T17:39:09.909Z,16.30
2022-09-09T17:49:14.416Z,16.20
2022-09-09T17:54:18.237Z,16.10
2022-09-09T17:59:16.981Z,16.10
2022-09-09T18:04:16.748Z,16.20
2022-09-09T18:09:23.622Z,16.30
2022-09-09T18:14:24.912Z,16.30
2022-09-09T18:19:31.375Z,16.30
2022-09-09T18:24:28.796Z,16.20
2022-09-09T18:29:26.510Z,16.20
2022-09-09T18:34:30.305Z,16.20
2022-09-09T18:39:30.003Z,16.30
2022-09-09T18:44:30.601Z,16.20
2022-09-09T18:49:28.176Z,16.00
2022-09-09T18:54:30.578Z,16.00
2022-09-09T18:59:28.861Z,16.10
2022-09-09T19:04:27.573Z,16.00
2022-09-09T19:09:29.316Z,16.00
2022-09-09T19:14:27.090Z,16.00
2022-09-09T19:19:27.887Z,16.00
2022-09-09T19:24:30.496Z,16.20
2022-09-09T19:29:32.057Z,16.20
2022-09-09T19:34:29.647Z,16.20
2022-09-09T19:39:27.483Z,16.10
2022-09-09T19:44:24.734Z,16.00
2022-09-09T19:49:22.125Z,16.00
2022-09-09T19:54:19.381Z,16.10
2022-09-09T19:59:16.776Z,16.00
2022-09-09T20:04:15.464Z,16.00
2022-09-09T20:09:17.756Z,16.00
2022-09-09T20:14:16.130Z,16.00
2022-09-09T20:19:16.504Z,16.00
2022-09-09T20:24:15.391Z,15.90
2022-09-09T20:29:16.367Z,15.90
2022-09-09T20:34:16.795Z,15.90
2022-09-09T20:39:20.189Z,15.90
2022-09-09T20:44:24.449Z,16.00
2022-09-09T20:49:24.486Z,16.00
2022-09-09T20:54:24.512Z,16.00
2022-09-09T20:59:23.248Z,16.00
2022-09-09T21:04:22.126Z,15.90
2022-09-09T21:09:20.719Z,15.80
2022-09-09T21:14:18.739Z,15.80
2022-09-09T21:19:16.814Z,15.80
2022-09-09T21:24:14.424Z,15.80
2022-09-09T21:29:13.271Z,15.70
2022-09-09T21:34:11.301Z,15.70
2022-09-09T21:39:08.547Z,15.70
2022-09-09T21:44:05.856Z,15.60
2022-09-09T21:49:04.509Z,15.60
2022-09-09T21:54:01.807Z,15.60
2022-09-09T21:59:03.928Z,15.40
2022-09-09T22:04:02.378Z,15.50
2022-09-09T22:09:00.408Z,15.50
2022-09-09T22:13:58.291Z,15.50
2022-09-09T22:18:57.857Z,15.50
2022-09-09T22:24:03.918Z,15.50
2022-09-09T22:29:01.626Z,15.60
2022-09-09T22:33:59.146Z,15.70
2022-09-09T22:38:56.966Z,15.60
2022-09-09T22:43:54.246Z,15.50
2022-09-09T22:48:51.522Z,15.40
2022-09-09T22:53:49.015Z,15.50
2022-09-09T22:58:47.629Z,15.50
2022-09-09T23:03:49.129Z,15.40
2022-09-09T23:08:46.778Z,15.30
2022-09-09T23:13:52.171Z,15.30
2022-09-09T23:18:50.858Z,15.20
2022-09-09T23:23:48.853Z,15.20
2022-09-09T23:28:46.876Z,15.20
2022-09-09T23:33:45.123Z,15.10
2022-09-09T23:38:43.746Z,15.10
2022-09-09T23:43:41.499Z,15.10
2022-09-09T23:48:39.641Z,15.20
2022-09-09T23:53:37.833Z,15.20
2022-09-09T23:58:35.195Z,15.10
